sensor_id;sensor_type;location;lat;lon;timestamp;pressure;altitude;pressure_sealevel;temperature;humidity
19108;BME280;9686;48.832;9.126;2023-12-07T00:00:50;98520.13;;;4.82;100.00
19108;BME280;9686;48.832;9.126;2023-12-07T00:03:15;98516.88;;;4.91;100.00
19108;BME280;9686;48.832;9.126;2023-12-07T00:05:40;98521.78;;;4.79;100.00
19108;BME280;9686;48.832;9.126;2023-12-07T00:08:09;98526.03;;;4.75;100.00
19108;BME280;9686;48.832;9.126;2023-12-07T00:10:34;98532.13;;;4.79;100.00
19108;BME280;9686;48.832;9.126;2023-12-07T00:13:00;98522.63;;;4.78;100.00
19108;BME280;9686;48.832;9.126;2023-12-07T00:15:25;98530.47;;;4.82;100.00
19108;BME280;9686;48.832;9.126;2023-12-07T00:17:50;98530.56;;;4.87;100.00
19108;BME280;9686;48.832;9.126;2023-12-07T00:20:16;98529.91;;;4.95;100.00
19108;BME280;9686;48.832;9.126;2023-12-07T00:22:41;98531.81;;;5.04;100.00
19108;BME280;9686;48.832;9.126;2023-12-07T00:25:07;98528.47;;;5.10;100.00
19108;BME280;9686;48.832;9.126;2023-12-07T00:27:32;98532.84;;;5.14;100.00
19108;BME280;9686;48.832;9.126;2023-12-07T00:29:57;98534.50;;;5.10;100.00
19108;BME280;9686;48.832;9.126;2023-12-07T00:32:22;98531.88;;;5.07;100.00
19108;BME280;9686;48.832;9.126;2023-12-07T00:34:48;98541.41;;;5.11;100.00
19108;BME280;9686;48.832;9.126;2023-12-07T00:37:14;98533.06;;;5.23;100.00
19108;BME280;9686;48.832;9.126;2023-12-07T00:39:40;98537.25;;;5.18;100.00
19108;BME280;9686;48.832;9.126;2023-12-07T00:42:06;98546.53;;;5.08;100.00
19108;BME280;9686;48.832;9.126;2023-12-07T00:44:31;98540.50;;;5.08;100.00
19108;BME280;9686;48.832;9.126;2023-12-07T00:46:56;98546.47;;;5.05;100.00
19108;BME280;9686;48.832;9.126;2023-12-07T00:49:22;98546.66;;;5.14;100.00
19108;BME280;9686;48.832;9.126;2023-12-07T00:51:47;98544.16;;;5.19;100.00
19108;BME280;9686;48.832;9.126;2023-12-07T00:54:12;98538.03;;;5.14;100.00
19108;BME280;9686;48.832;9.126;2023-12-07T00:56:38;98540.56;;;5.11;100.00
19108;BME280;9686;48.832;9.126;2023-12-07T00:59:03;98538.78;;;5.08;100.00
19108;BME280;9686;48.832;9.126;2023-12-07T01:01:29;98544.03;;;5.13;100.00
19108;BME280;9686;48.832;9.126;2023-12-07T01:03:54;98547.47;;;5.12;100.00
19108;BME280;9686;48.832;9.126;2023-12-07T01:06:19;98546.69;;;5.16;100.00
19108;BME280;9686;48.832;9.126;2023-12-07T01:08:45;98544.91;;;5.13;100.00
19108;BME280;9686;48.832;9.126;2023-12-07T01:11:10;98559.47;;;5.10;100.00
19108;BME280;9686;48.832;9.126;2023-12-07T01:13:35;98558.91;;;5.23;100.00
19108;BME280;9686;48.832;9.126;2023-12-07T01:16:01;98559.81;;;5.25;100.00
19108;BME280;9686;48.832;9.126;2023-12-07T01:18:26;98561.56;;;5.26;100.00
19108;BME280;9686;48.832;9.126;2023-12-07T01:20:52;98563.28;;;5.27;100.00
19108;BME280;9686;48.832;9.126;2023-12-07T01:23:17;98561.56;;;5.26;100.00
19108;BME280;9686;48.832;9.126;2023-12-07T01:25:42;98559.00;;;5.28;100.00
19108;BME280;9686;48.832;9.126;2023-12-07T01:28:08;98565.69;;;5.19;100.00
19108;BME280;9686;48.832;9.126;2023-12-07T01:30:33;98559.13;;;5.34;100.00
19108;BME280;9686;48.832;9.126;2023-12-07T01:32:58;98565.78;;;5.22;100.00
19108;BME280;9686;48.832;9.126;2023-12-07T01:35:23;98566.50;;;5.17;100.00
19108;BME280;9686;48.832;9.126;2023-12-07T01:37:49;98569.97;;;5.17;100.00
19108;BME280;9686;48.832;9.126;2023-12-07T01:40:14;98574.06;;;5.08;100.00
19108;BME280;9686;48.832;9.126;2023-12-07T01:42:42;98569.28;;;5.24;100.00
19108;BME280;9686;48.832;9.126;2023-12-07T01:45:14;98570.41;;;4.97;100.00
19108;BME280;9686;48.832;9.126;2023-12-07T01:47:39;98573.81;;;4.95;100.00
19108;BME280;9686;48.832;9.126;2023-12-07T01:50:05;98577.06;;;4.87;100.00
19108;BME280;9686;48.832;9.126;2023-12-07T01:52:31;98577.78;;;4.81;100.00
19108;BME280;9686;48.832;9.126;2023-12-07T01:54:57;98577.78;;;4.81;100.00
19108;BME280;9686;48.832;9.126;2023-12-07T01:57:22;98584.09;;;4.94;100.00
19108;BME280;9686;48.832;9.126;2023-12-07T01:59:49;98573.81;;;4.95;100.00
19108;BME280;9686;48.832;9.126;2023-12-07T02:02:15;98583.31;;;4.97;100.00
19108;BME280;9686;48.832;9.126;2023-12-07T02:04:40;98583.59;;;4.71;100.00
19108;BME280;9686;48.832;9.126;2023-12-07T02:07:06;98589.56;;;4.69;100.00
19108;BME280;9686;48.832;9.126;2023-12-07T02:09:32;98592.84;;;4.63;100.00
19108;BME280;9686;48.832;9.126;2023-12-07T02:11:57;98597.88;;;4.57;100.00
19108;BME280;9686;48.832;9.126;2023-12-07T02:14:23;98590.84;;;4.50;100.00
19108;BME280;9686;48.832;9.126;2023-12-07T02:16:52;98587.75;;;4.66;100.00
19108;BME280;9686;48.832;9.126;2023-12-07T02:22:12;98573.38;;;4.76;100.00
19108;BME280;9686;48.832;9.126;2023-12-07T02:24:48;98568.81;;;4.65;100.00
19108;BME280;9686;48.832;9.126;2023-12-07T02:27:33;98589.25;;;4.56;100.00
19108;BME280;9686;48.832;9.126;2023-12-07T02:29:58;98580.13;;;4.34;100.00
19108;BME280;9686;48.832;9.126;2023-12-07T02:32:24;98583.59;;;4.35;100.00
19108;BME280;9686;48.832;9.126;2023-12-07T02:34:49;98584.47;;;4.36;100.00
19108;BME280;9686;48.832;9.126;2023-12-07T02:37:14;98575.78;;;4.32;100.00
19108;BME280;9686;48.832;9.126;2023-12-07T02:39:40;98582.44;;;4.22;100.00
19108;BME280;9686;48.832;9.126;2023-12-07T02:42:06;98594.25;;;4.14;100.00
19108;BME280;9686;48.832;9.126;2023-12-07T02:44:32;98590.75;;;4.12;100.00
19108;BME280;9686;48.832;9.126;2023-12-07T02:46:58;98591.09;;;3.91;100.00
19108;BME280;9686;48.832;9.126;2023-12-07T02:49:23;98593.47;;;3.85;100.00
19108;BME280;9686;48.832;9.126;2023-12-07T02:51:49;98585.00;;;3.89;100.00
19108;BME280;9686;48.832;9.126;2023-12-07T02:54:15;98579.41;;;4.06;100.00
19108;BME280;9686;48.832;9.126;2023-12-07T02:56:40;98588.78;;;4.02;100.00
19108;BME280;9686;48.832;9.126;2023-12-07T02:59:05;98585.31;;;4.01;100.00
19108;BME280;9686;48.832;9.126;2023-12-07T03:01:30;98592.78;;;3.91;100.00
19108;BME280;9686;48.832;9.126;2023-12-07T03:03:56;98593.94;;;4.02;100.00
19108;BME280;9686;48.832;9.126;2023-12-07T03:06:21;98593.19;;;4.06;100.00
19108;BME280;9686;48.832;9.126;2023-12-07T03:08:46;98591.28;;;3.99;100.00
19108;BME280;9686;48.832;9.126;2023-12-07T03:11:12;98597.16;;;3.93;100.00
19108;BME280;9686;48.832;9.126;2023-12-07T03:13:37;98595.19;;;3.85;100.00
19108;BME280;9686;48.832;9.126;2023-12-07T03:16:07;98599.56;;;3.56;100.00
19108;BME280;9686;48.832;9.126;2023-12-07T03:18:32;98595.34;;;3.59;100.00
19108;BME280;9686;48.832;9.126;2023-12-07T03:20:57;98599.69;;;3.60;100.00
19108;BME280;9686;48.832;9.126;2023-12-07T03:23:23;98600.38;;;3.55;100.00
19108;BME280;9686;48.832;9.126;2023-12-07T03:25:48;98602.53;;;3.69;100.00
19108;BME280;9686;48.832;9.126;2023-12-07T03:28:13;98598.16;;;3.67;100.00
19108;BME280;9686;48.832;9.126;2023-12-07T03:30:38;98605.97;;;3.70;100.00
19108;BME280;9686;48.832;9.126;2023-12-07T03:33:04;98598.84;;;3.61;100.00
19108;BME280;9686;48.832;9.126;2023-12-07T03:35:29;98601.78;;;3.42;100.00
19108;BME280;9686;48.832;9.126;2023-12-07T03:37:54;98602.69;;;3.14;100.00
19108;BME280;9686;48.832;9.126;2023-12-07T03:40:19;98603.81;;;2.95;100.00
19108;BME280;9686;48.832;9.126;2023-12-07T03:42:45;98603.78;;;2.94;100.00
19108;BME280;9686;48.832;9.126;2023-12-07T03:45:10;98609.34;;;2.81;100.00
19108;BME280;9686;48.832;9.126;2023-12-07T03:47:35;98618.59;;;2.74;100.00
19108;BME280;9686;48.832;9.126;2023-12-07T03:50:00;98625.78;;;2.84;100.00
19108;BME280;9686;48.832;9.126;2023-12-07T03:52:26;98618.69;;;3.05;100.00
19108;BME280;9686;48.832;9.126;2023-12-07T03:54:51;98617.09;;;2.81;100.00
19108;BME280;9686;48.832;9.126;2023-12-07T03:57:16;98621.72;;;2.64;100.00
19108;BME280;9686;48.832;9.126;2023-12-07T03:59:41;98618.78;;;2.80;100.00
19108;BME280;9686;48.832;9.126;2023-12-07T04:02:07;98620.03;;;2.64;100.00
19108;BME280;9686;48.832;9.126;2023-12-07T04:04:33;98621.41;;;2.55;100.00
19108;BME280;9686;48.832;9.126;2023-12-07T04:06:59;98625.34;;;2.70;100.00
19108;BME280;9686;48.832;9.126;2023-12-07T04:09:24;98622.38;;;2.85;100.00
19108;BME280;9686;48.832;9.126;2023-12-07T04:11:50;98630.78;;;2.79;100.00
19108;BME280;9686;48.832;9.126;2023-12-07T04:14:15;98620.16;;;2.69;100.00
19108;BME280;9686;48.832;9.126;2023-12-07T04:16:40;98621.13;;;2.45;100.00
19108;BME280;9686;48.832;9.126;2023-12-07T04:19:06;98624.38;;;2.40;100.00
19108;BME280;9686;48.832;9.126;2023-12-07T04:21:31;98629.38;;;2.35;100.00
19108;BME280;9686;48.832;9.126;2023-12-07T04:23:56;98637.38;;;2.44;100.00
19108;BME280;9686;48.832;9.126;2023-12-07T04:26:23;98637.66;;;2.27;100.00
19108;BME280;9686;48.832;9.126;2023-12-07T04:28:48;98627.31;;;2.25;100.00
19108;BME280;9686;48.832;9.126;2023-12-07T04:31:13;98634.81;;;2.19;100.00
19108;BME280;9686;48.832;9.126;2023-12-07T04:33:38;98639.75;;;2.38;100.00
19108;BME280;9686;48.832;9.126;2023-12-07T04:36:04;98643.16;;;2.37;100.00
19108;BME280;9686;48.832;9.126;2023-12-07T04:38:30;98639.38;;;2.28;100.00
19108;BME280;9686;48.832;9.126;2023-12-07T04:40:55;98640.25;;;2.28;100.00
19108;BME280;9686;48.832;9.126;2023-12-07T04:43:20;98641.56;;;2.15;100.00
19108;BME280;9686;48.832;9.126;2023-12-07T04:45:45;98645.94;;;2.18;100.00
19108;BME280;9686;48.832;9.126;2023-12-07T04:48:11;98640.22;;;2.27;100.00
19108;BME280;9686;48.832;9.126;2023-12-07T04:50:36;98633.75;;;2.38;100.00
19108;BME280;9686;48.832;9.126;2023-12-07T04:53:01;98641.38;;;2.35;100.00
19108;BME280;9686;48.832;9.126;2023-12-07T04:55:27;98634.38;;;2.07;100.00
19108;BME280;9686;48.832;9.126;2023-12-07T04:57:53;98630.78;;;2.02;100.00
19108;BME280;9686;48.832;9.126;2023-12-07T05:00:18;98638.16;;;1.91;100.00
19108;BME280;9686;48.832;9.126;2023-12-07T05:02:43;98635.53;;;1.90;100.00
19108;BME280;9686;48.832;9.126;2023-12-07T05:05:08;98640.50;;;1.85;100.00
19108;BME280;9686;48.832;9.126;2023-12-07T05:07:34;98647.47;;;1.88;100.00
19108;BME280;9686;48.832;9.126;2023-12-07T05:09:59;98650.03;;;1.88;100.00
19108;BME280;9686;48.832;9.126;2023-12-07T05:12:24;98646.47;;;1.84;100.00
19108;BME280;9686;48.832;9.126;2023-12-07T05:14:50;98646.59;;;1.87;100.00
19108;BME280;9686;48.832;9.126;2023-12-07T05:17:15;98650.78;;;1.85;100.00
19108;BME280;9686;48.832;9.126;2023-12-07T05:19:40;98656.09;;;1.90;100.00
19108;BME280;9686;48.832;9.126;2023-12-07T05:22:06;98651.94;;;1.93;100.00
19108;BME280;9686;48.832;9.126;2023-12-07T05:24:31;98652.03;;;1.96;100.00
19108;BME280;9686;48.832;9.126;2023-12-07T05:26:59;98656.09;;;1.90;100.00
19108;BME280;9686;48.832;9.126;2023-12-07T05:29:24;98658.47;;;1.83;100.00
19108;BME280;9686;48.832;9.126;2023-12-07T05:31:50;98658.94;;;1.73;100.00
19108;BME280;9686;48.832;9.126;2023-12-07T05:34:16;98660.88;;;1.80;100.00
19108;BME280;9686;48.832;9.126;2023-12-07T05:36:41;98654.50;;;1.93;100.00
19108;BME280;9686;48.832;9.126;2023-12-07T05:39:06;98654.56;;;1.95;100.00
19108;BME280;9686;48.832;9.126;2023-12-07T05:41:32;98656.47;;;1.76;100.00
19108;BME280;9686;48.832;9.126;2023-12-07T05:43:57;98662.25;;;1.71;100.00
19108;BME280;9686;48.832;9.126;2023-12-07T05:46:23;98656.25;;;1.70;100.00
19108;BME280;9686;48.832;9.126;2023-12-07T05:48:48;98656.50;;;1.78;100.00
19108;BME280;9686;48.832;9.126;2023-12-07T05:51:15;98655.78;;;1.82;100.00
19108;BME280;9686;48.832;9.126;2023-12-07T05:53:41;98651.06;;;1.69;100.00
19108;BME280;9686;48.832;9.126;2023-12-07T05:56:07;98652.16;;;1.75;100.00
19108;BME280;9686;48.832;9.126;2023-12-07T05:58:32;98655.28;;;1.67;100.00
19108;BME280;9686;48.832;9.126;2023-12-07T06:00:58;98650.34;;;1.73;100.00
19108;BME280;9686;48.832;9.126;2023-12-07T06:03:23;98650.91;;;1.64;100.00
19108;BME280;9686;48.832;9.126;2023-12-07T06:05:49;98651.25;;;1.51;100.00
19108;BME280;9686;48.832;9.126;2023-12-07T06:08:14;98654.69;;;1.51;100.00
19108;BME280;9686;48.832;9.126;2023-12-07T06:10:39;98641.69;;;1.47;100.00
19108;BME280;9686;48.832;9.126;2023-12-07T06:13:05;98660.16;;;1.59;100.00
19108;BME280;9686;48.832;9.126;2023-12-07T06:15:30;98653.13;;;1.55;100.00
19108;BME280;9686;48.832;9.126;2023-12-07T06:17:55;98651.25;;;1.51;100.00
19108;BME280;9686;48.832;9.126;2023-12-07T06:20:22;98651.72;;;1.63;100.00
19108;BME280;9686;48.832;9.126;2023-12-07T06:22:47;98653.19;;;1.57;100.00
19108;BME280;9686;48.832;9.126;2023-12-07T06:25:13;98647.16;;;1.56;100.00
19108;BME280;9686;48.832;9.126;2023-12-07T06:27:38;98651.38;;;1.54;100.00
19108;BME280;9686;48.832;9.126;2023-12-07T06:30:05;98650.41;;;1.74;100.00
19108;BME280;9686;48.832;9.126;2023-12-07T06:32:33;98651.06;;;1.69;100.00
19108;BME280;9686;48.832;9.126;2023-12-07T06:34:59;98662.47;;;1.53;100.00
19108;BME280;9686;48.832;9.126;2023-12-07T06:37:24;98657.00;;;1.44;100.00
19108;BME280;9686;48.832;9.126;2023-12-07T06:39:49;98656.94;;;1.42;100.00
19108;BME280;9686;48.832;9.126;2023-12-07T06:42:15;98656.13;;;1.43;100.00
19108;BME280;9686;48.832;9.126;2023-12-07T06:44:45;98656.41;;;1.51;100.00
19108;BME280;9686;48.832;9.126;2023-12-07T06:47:11;98657.09;;;1.47;100.00
19108;BME280;9686;48.832;9.126;2023-12-07T06:49:36;98663.56;;;1.36;100.00
19108;BME280;9686;48.832;9.126;2023-12-07T06:52:01;98663.63;;;1.37;100.00
19108;BME280;9686;48.832;9.126;2023-12-07T06:54:27;98667.53;;;1.51;100.00
19108;BME280;9686;48.832;9.126;2023-12-07T06:56:52;98658.19;;;1.53;100.00
19108;BME280;9686;48.832;9.126;2023-12-07T06:59:17;98656.50;;;1.54;100.00
19108;BME280;9686;48.832;9.126;2023-12-07T07:01:43;98664.53;;;1.39;100.00
19108;BME280;9686;48.832;9.126;2023-12-07T07:04:08;98657.06;;;1.23;100.00
19108;BME280;9686;48.832;9.126;2023-12-07T07:06:33;98667.06;;;1.15;100.00
19108;BME280;9686;48.832;9.126;2023-12-07T07:08:59;98662.78;;;1.16;100.00
19108;BME280;9686;48.832;9.126;2023-12-07T07:11:24;98666.88;;;1.11;100.00
19108;BME280;9686;48.832;9.126;2023-12-07T07:13:50;98663.94;;;1.24;100.00
19108;BME280;9686;48.832;9.126;2023-12-07T07:16:15;98667.16;;;1.18;100.00
19108;BME280;9686;48.832;9.126;2023-12-07T07:18:41;98662.78;;;1.16;100.00
19108;BME280;9686;48.832;9.126;2023-12-07T07:21:07;98656.03;;;1.18;100.00
19108;BME280;9686;48.832;9.126;2023-12-07T07:23:34;98660.34;;;1.19;100.00
19108;BME280;9686;48.832;9.126;2023-12-07T07:26:00;98658.94;;;1.27;100.00
19108;BME280;9686;48.832;9.126;2023-12-07T07:28:25;98661.22;;;1.19;100.00
19108;BME280;9686;48.832;9.126;2023-12-07T07:30:50;98665.41;;;1.17;100.00
19108;BME280;9686;48.832;9.126;2023-12-07T07:33:16;98673.19;;;1.19;100.00
19108;BME280;9686;48.832;9.126;2023-12-07T07:35:42;98662.19;;;1.23;100.00
19108;BME280;9686;48.832;9.126;2023-12-07T07:38:07;98663.31;;;1.30;100.00
19108;BME280;9686;48.832;9.126;2023-12-07T07:40:32;98655.31;;;1.22;100.00
19108;BME280;9686;48.832;9.126;2023-12-07T07:42:57;98666.47;;;1.22;100.00
19108;BME280;9686;48.832;9.126;2023-12-07T07:45:23;98673.34;;;1.23;100.00
19108;BME280;9686;48.832;9.126;2023-12-07T07:47:50;98681.97;;;1.26;100.00
19108;BME280;9686;48.832;9.126;2023-12-07T07:50:15;98677.03;;;1.30;100.00
19108;BME280;9686;48.832;9.126;2023-12-07T07:52:41;98672.25;;;1.39;100.00
19108;BME280;9686;48.832;9.126;2023-12-07T07:55:07;98671.00;;;1.52;100.00
19108;BME280;9686;48.832;9.126;2023-12-07T07:57:33;98673.75;;;1.57;100.00
19108;BME280;9686;48.832;9.126;2023-12-07T07:59:58;98673.97;;;1.63;100.00
19108;BME280;9686;48.832;9.126;2023-12-07T08:02:24;98676.81;;;1.70;100.00
19108;BME280;9686;48.832;9.126;2023-12-07T08:04:49;98681.50;;;1.82;100.00
19108;BME280;9686;48.832;9.126;2023-12-07T08:07:17;98672.81;;;1.78;100.00
19108;BME280;9686;48.832;9.126;2023-12-07T08:09:42;98680.75;;;1.84;100.00
19108;BME280;9686;48.832;9.126;2023-12-07T08:12:07;98678.50;;;1.94;100.00
19108;BME280;9686;48.832;9.126;2023-12-07T08:14:35;98678.28;;;2.11;100.00
19108;BME280;9686;48.832;9.126;2023-12-07T08:17:00;98678.59;;;2.21;100.00
19108;BME280;9686;48.832;9.126;2023-12-07T08:19:26;98671.94;;;2.27;100.00
19108;BME280;9686;48.832;9.126;2023-12-07T08:21:52;98676.50;;;2.34;100.00
19108;BME280;9686;48.832;9.126;2023-12-07T08:24:17;98676.50;;;2.34;100.00
19108;BME280;9686;48.832;9.126;2023-12-07T08:26:42;98675.19;;;2.47;100.00
19108;BME280;9686;48.832;9.126;2023-12-07T08:29:08;98677.50;;;2.65;100.00
19108;BME280;9686;48.832;9.126;2023-12-07T08:31:33;98674.91;;;2.63;100.00
19108;BME280;9686;48.832;9.126;2023-12-07T08:33:58;98674.31;;;2.72;100.00
19108;BME280;9686;48.832;9.126;2023-12-07T08:36:25;98672.06;;;2.83;100.00
19108;BME280;9686;48.832;9.126;2023-12-07T08:38:51;98664.75;;;2.95;100.00
19108;BME280;9686;48.832;9.126;2023-12-07T08:41:16;98671.22;;;3.10;100.00
19108;BME280;9686;48.832;9.126;2023-12-07T08:43:41;98673.34;;;3.24;100.00
19108;BME280;9686;48.832;9.126;2023-12-07T08:46:07;98675.19;;;3.28;100.00
19108;BME280;9686;48.832;9.126;2023-12-07T08:48:33;98679.84;;;3.39;100.00
19108;BME280;9686;48.832;9.126;2023-12-07T08:50:59;98667.88;;;3.42;100.00
19108;BME280;9686;48.832;9.126;2023-12-07T08:53:24;98664.19;;;3.33;100.00
19108;BME280;9686;48.832;9.126;2023-12-07T08:55:49;98658.88;;;3.57;100.00
19108;BME280;9686;48.832;9.126;2023-12-07T08:58:15;98650.28;;;3.57;100.00
19108;BME280;9686;48.832;9.126;2023-12-07T09:00:40;98649.41;;;3.56;100.00
19108;BME280;9686;48.832;9.126;2023-12-07T09:03:05;98637.66;;;3.66;100.00
19108;BME280;9686;48.832;9.126;2023-12-07T09:05:30;98641.78;;;3.61;100.00
19108;BME280;9686;48.832;9.126;2023-12-07T09:07:56;98647.69;;;3.57;100.00
19108;BME280;9686;48.832;9.126;2023-12-07T09:10:22;98642.88;;;3.67;100.00
19108;BME280;9686;48.832;9.126;2023-12-07T09:12:47;98638.19;;;3.86;100.00
19108;BME280;9686;48.832;9.126;2023-12-07T09:15:13;98634.13;;;3.94;100.00
19108;BME280;9686;48.832;9.126;2023-12-07T09:17:39;98630.16;;;4.07;100.00
19108;BME280;9686;48.832;9.126;2023-12-07T09:20:08;98627.81;;;4.16;100.00
19108;BME280;9686;48.832;9.126;2023-12-07T09:22:39;98619.19;;;4.15;100.00
19108;BME280;9686;48.832;9.126;2023-12-07T09:25:06;98616.88;;;4.24;100.00
19108;BME280;9686;48.832;9.126;2023-12-07T09:27:33;98621.56;;;4.41;100.00
19108;BME280;9686;48.832;9.126;2023-12-07T09:29:58;98633.50;;;4.36;100.00
19108;BME280;9686;48.832;9.126;2023-12-07T09:32:23;98632.56;;;4.33;100.00
19108;BME280;9686;48.832;9.126;2023-12-07T09:34:49;98627.59;;;4.41;100.00
19108;BME280;9686;48.832;9.126;2023-12-07T09:37:16;98622.72;;;4.52;100.00
19108;BME280;9686;48.832;9.126;2023-12-07T09:39:41;98624.66;;;4.60;100.00
19108;BME280;9686;48.832;9.126;2023-12-07T09:42:06;98617.44;;;4.83;100.00
19108;BME280;9686;48.832;9.126;2023-12-07T09:44:32;98607.25;;;4.89;100.00
19108;BME280;9686;48.832;9.126;2023-12-07T09:46:57;98613.50;;;4.99;100.00
19108;BME280;9686;48.832;9.126;2023-12-07T09:49:22;98610.72;;;4.91;100.00
19108;BME280;9686;48.832;9.126;2023-12-07T09:51:49;98604.66;;;4.89;100.00
19108;BME280;9686;48.832;9.126;2023-12-07T09:54:16;98607.47;;;4.99;100.00
19108;BME280;9686;48.832;9.126;2023-12-07T09:56:43;98603.28;;;5.04;100.00
19108;BME280;9686;48.832;9.126;2023-12-07T09:59:08;98602.56;;;5.11;100.00
19108;BME280;9686;48.832;9.126;2023-12-07T10:01:34;98608.81;;;5.20;100.00
19108;BME280;9686;48.832;9.126;2023-12-07T10:04:22;98602.75;;;5.20;100.00
19108;BME280;9686;48.832;9.126;2023-12-07T10:06:49;98591.03;;;5.36;100.00
19108;BME280;9686;48.832;9.126;2023-12-07T10:09:15;98591.81;;;5.32;100.00
19108;BME280;9686;48.832;9.126;2023-12-07T10:11:41;98579.09;;;5.42;100.00
19108;BME280;9686;48.832;9.126;2023-12-07T10:14:07;98566.41;;;5.53;100.00
19108;BME280;9686;48.832;9.126;2023-12-07T10:16:36;98569.84;;;5.52;100.00
19108;BME280;9686;48.832;9.126;2023-12-07T10:19:14;98569.09;;;5.59;100.00
19108;BME280;9686;48.832;9.126;2023-12-07T10:21:42;98569.13;;;5.61;100.00
19108;BME280;9686;48.832;9.126;2023-12-07T10:24:09;98565.78;;;5.66;100.00
19108;BME280;9686;48.832;9.126;2023-12-07T10:26:34;98558.94;;;5.70;100.00
19108;BME280;9686;48.832;9.126;2023-12-07T10:29:02;98546.19;;;5.77;100.00
19108;BME280;9686;48.832;9.126;2023-12-07T10:31:29;98554.81;;;5.78;100.00
19108;BME280;9686;48.832;9.126;2023-12-07T10:33:56;98548.09;;;5.89;100.00
19108;BME280;9686;48.832;9.126;2023-12-07T10:36:21;98545.66;;;5.95;100.00
19108;BME280;9686;48.832;9.126;2023-12-07T10:38:47;98537.38;;;6.16;100.00
19108;BME280;9686;48.832;9.126;2023-12-07T10:41:16;98540.72;;;6.09;100.00
19108;BME280;9686;48.832;9.126;2023-12-07T10:43:43;98542.31;;;6.01;100.00
19108;BME280;9686;48.832;9.126;2023-12-07T10:46:14;98531.97;;;6.01;100.00
19108;BME280;9686;48.832;9.126;2023-12-07T10:48:44;98529.53;;;6.10;100.00
19108;BME280;9686;48.832;9.126;2023-12-07T10:51:12;98533.16;;;6.21;100.00
19108;BME280;9686;48.832;9.126;2023-12-07T10:53:44;98540.88;;;6.18;100.00
19108;BME280;9686;48.832;9.126;2023-12-07T10:56:11;98535.69;;;6.18;100.00
19108;BME280;9686;48.832;9.126;2023-12-07T10:58:40;98526.34;;;6.26;100.00
19108;BME280;9686;48.832;9.126;2023-12-07T11:01:07;98530.81;;;6.36;100.00
19108;BME280;9686;48.832;9.126;2023-12-07T11:03:35;98523.16;;;6.44;100.00
19108;BME280;9686;48.832;9.126;2023-12-07T11:06:02;98511.47;;;6.72;100.00
19108;BME280;9686;48.832;9.126;2023-12-07T11:08:35;98504.75;;;6.83;100.00
19108;BME280;9686;48.832;9.126;2023-12-07T11:14:15;98492.19;;;7.15;100.00
19108;BME280;9686;48.832;9.126;2023-12-07T11:16:43;98482.88;;;7.29;100.00
19108;BME280;9686;48.832;9.126;2023-12-07T11:19:44;98470.88;;;7.42;100.00
19108;BME280;9686;48.832;9.126;2023-12-07T11:22:11;98468.34;;;7.47;100.00
19108;BME280;9686;48.832;9.126;2023-12-07T11:24:38;98471.81;;;7.49;100.00
19108;BME280;9686;48.832;9.126;2023-12-07T11:27:03;98466.97;;;7.81;100.00
19108;BME280;9686;48.832;9.126;2023-12-07T11:29:29;98469.72;;;8.03;100.00
19108;BME280;9686;48.832;9.126;2023-12-07T11:31:56;98457.75;;;8.21;100.00
19108;BME280;9686;48.832;9.126;2023-12-07T11:34:39;98444.25;;;8.69;100.00
19108;BME280;9686;48.832;9.126;2023-12-07T11:37:05;98439.25;;;9.24;98.29
19108;BME280;9686;48.832;9.126;2023-12-07T11:39:42;98432.38;;;9.63;89.89
19108;BME280;9686;48.832;9.126;2023-12-07T11:42:18;98424.63;;;9.95;82.71
19108;BME280;9686;48.832;9.126;2023-12-07T11:44:47;98428.09;;;10.26;72.13
19108;BME280;9686;48.832;9.126;2023-12-07T11:47:20;98421.09;;;10.57;71.81
19108;BME280;9686;48.832;9.126;2023-12-07T11:49:46;98410.63;;;10.70;71.40
19108;BME280;9686;48.832;9.126;2023-12-07T11:52:15;98414.03;;;10.88;68.18
19108;BME280;9686;48.832;9.126;2023-12-07T11:54:48;98414.06;;;10.78;66.02
19108;BME280;9686;48.832;9.126;2023-12-07T11:57:14;98410.63;;;10.75;63.11
19108;BME280;9686;48.832;9.126;2023-12-07T11:59:41;98407.16;;;10.65;62.56
19108;BME280;9686;48.832;9.126;2023-12-07T12:02:07;98401.16;;;10.31;63.48
19108;BME280;9686;48.832;9.126;2023-12-07T12:04:32;98402.94;;;9.91;63.39
19108;BME280;9686;48.832;9.126;2023-12-07T12:06:57;98382.94;;;9.55;64.38
19108;BME280;9686;48.832;9.126;2023-12-07T12:09:26;98382.91;;;9.34;65.50
19108;BME280;9686;48.832;9.126;2023-12-07T12:11:51;98373.31;;;8.96;69.83
19108;BME280;9686;48.832;9.126;2023-12-07T12:14:17;98374.06;;;8.66;69.92
19108;BME280;9686;48.832;9.126;2023-12-07T12:16:43;98380.88;;;8.40;66.06
19108;BME280;9686;48.832;9.126;2023-12-07T12:19:09;98364.25;;;8.13;67.92
19108;BME280;9686;48.832;9.126;2023-12-07T12:21:37;98378.78;;;7.88;70.80
19108;BME280;9686;48.832;9.126;2023-12-07T12:24:06;98371.03;;;7.93;71.72
19108;BME280;9686;48.832;9.126;2023-12-07T12:26:35;98370.91;;;7.79;75.15
19108;BME280;9686;48.832;9.126;2023-12-07T12:29:02;98365.75;;;7.81;73.63
19108;BME280;9686;48.832;9.126;2023-12-07T12:31:28;98370.81;;;7.67;75.94
19108;BME280;9686;48.832;9.126;2023-12-07T12:33:54;98364.00;;;7.80;73.42
19108;BME280;9686;48.832;9.126;2023-12-07T12:36:19;98354.47;;;7.79;74.78
19108;BME280;9686;48.832;9.126;2023-12-07T12:38:48;98339.72;;;7.71;72.73
19108;BME280;9686;48.832;9.126;2023-12-07T12:41:18;98341.44;;;7.69;74.29
19108;BME280;9686;48.832;9.126;2023-12-07T12:43:44;98342.22;;;7.56;75.50
19108;BME280;9686;48.832;9.126;2023-12-07T12:46:10;98332.59;;;7.45;74.99
19108;BME280;9686;48.832;9.126;2023-12-07T12:48:37;98336.09;;;7.50;74.57
19108;BME280;9686;48.832;9.126;2023-12-07T12:51:10;98335.19;;;7.45;71.77
19108;BME280;9686;48.832;9.126;2023-12-07T12:53:42;98329.97;;;7.41;76.16
19108;BME280;9686;48.832;9.126;2023-12-07T12:56:07;98323.97;;;7.47;74.26
19108;BME280;9686;48.832;9.126;2023-12-07T12:58:32;98323.94;;;7.44;72.32
19108;BME280;9686;48.832;9.126;2023-12-07T13:00:58;98328.31;;;7.50;69.65
19108;BME280;9686;48.832;9.126;2023-12-07T13:03:23;98320.59;;;7.57;72.65
19108;BME280;9686;48.832;9.126;2023-12-07T13:05:48;98323.25;;;7.66;69.48
19108;BME280;9686;48.832;9.126;2023-12-07T13:08:14;98328.34;;;7.54;71.38
19108;BME280;9686;48.832;9.126;2023-12-07T13:10:39;98329.16;;;7.46;72.31
19108;BME280;9686;48.832;9.126;2023-12-07T13:13:05;98316.16;;;7.44;69.21